createdAt,value
2022-08-31T00:02:22.558Z,4.90
2022-08-31T00:13:07.046Z,6.20
2022-08-31T00:23:46.061Z,5.20
2022-08-31T00:34:42.257Z,4.00
2022-08-31T00:45:32.063Z,7.30
2022-08-31T00:56:20.925Z,5.30
2022-08-31T01:07:10.574Z,4.10
2022-08-31T01:18:11.074Z,3.60
2022-08-31T01:29:31.478Z,4.40
2022-08-31T01:39:58.901Z,5.00
2022-08-31T01:50:43.145Z,4.60
2022-08-31T02:01:28.098Z,5.40
2022-08-31T02:12:06.386Z,4.30
2022-08-31T02:22:50.571Z,5.50
2022-08-31T02:33:33.064Z,4.70
2022-08-31T02:44:31.148Z,3.80
2022-08-31T02:55:22.048Z,4.80
2022-08-31T03:06:22.489Z,4.60
2022-08-31T03:16:59.907Z,5.40
2022-08-31T03:27:36.311Z,3.90
2022-08-31T03:38:10.576Z,4.90
2022-08-31T03:48:54.464Z,4.20
2022-08-31T04:00:09.267Z,4.30
2022-08-31T04:11:12.135Z,4.90
2022-08-31T04:21:56.116Z,5.60
2022-08-31T04:32:40.932Z,5.40
2022-08-31T04:43:46.096Z,6.40
2022-08-31T04:54:52.084Z,6.10
2022-08-31T05:05:49.266Z,4.90
2022-08-31T05:16:42.621Z,7.90
2022-08-31T05:27:25.979Z,4.20
2022-08-31T05:38:34.830Z,7.90
2022-08-31T05:49:06.466Z,4.40
2022-08-31T05:59:17.078Z,6.80
2022-08-31T06:09:23.856Z,9.70
2022-08-31T06:19:30.365Z,7.70
2022-08-31T06:30:03.680Z,7.40
2022-08-31T06:40:12.329Z,8.30
2022-08-31T06:50:40.592Z,4.30
2022-08-31T07:00:48.572Z,3.30
2022-08-31T07:11:04.260Z,4.60
2022-08-31T07:21:20.319Z,2.80
2022-08-31T07:31:48.614Z,3.30
2022-08-31T07:42:02.607Z,3.20
2022-08-31T07:54:03.756Z,3.60
2022-08-31T08:04:40.900Z,6.10
2022-08-31T08:15:07.746Z,4.60
2022-08-31T08:25:49.446Z,6.20
2022-08-31T08:35:59.464Z,4.50
2022-08-31T08:46:25.564Z,3.60
2022-08-31T08:56:42.260Z,3.40
2022-08-31T09:07:28.936Z,3.70
2022-08-31T09:17:59.676Z,2.90
2022-08-31T09:28:20.802Z,2.70
2022-08-31T09:38:40.385Z,1.50
2022-08-31T09:48:53.188Z,2.90
2022-08-31T09:59:09.309Z,3.40
2022-08-31T10:09:40.093Z,2.50
2022-08-31T10:19:56.007Z,4.20
2022-08-31T10:30:05.269Z,1.60
2022-08-31T10:40:11.116Z,1.60
2022-08-31T10:50:24.023Z,1.90
2022-08-31T11:00:44.691Z,2.20
2022-08-31T11:10:55.298Z,1.30
2022-08-31T11:21:35.539Z,1.60
2022-08-31T11:31:46.661Z,1.50
2022-08-31T11:41:51.277Z,3.70
2022-08-31T11:52:14.792Z,1.40
2022-08-31T12:02:24.258Z,2.50
2022-08-31T12:12:52.298Z,1.80
2022-08-31T12:23:34.161Z,0.70
2022-08-31T12:34:05.366Z,2.50
2022-08-31T12:44:14.266Z,1.20
2022-08-31T12:54:37.413Z,1.70
2022-08-31T13:04:46.883Z,2.60
2022-08-31T13:14:53.022Z,2.20
2022-08-31T13:25:33.426Z,1.20
2022-08-31T13:35:45.252Z,2.10
2022-08-31T13:46:01.444Z,1.80
2022-08-31T13:56:55.480Z,2.50
2022-08-31T14:07:03.333Z,2.40
2022-08-31T14:17:35.064Z,1.20
2022-08-31T14:27:43.313Z,2.10
2022-08-31T14:37:49.993Z,3.20
2022-08-31T14:47:53.478Z,2.70
2022-08-31T14:58:05.352Z,1.10
2022-08-31T15:08:09.677Z,1.50
2022-08-31T15:18:34.119Z,2.20
2022-08-31T15:28:42.414Z,3.10
2022-08-31T15:38:50.234Z,2.30
2022-08-31T15:48:56.534Z,4.20
2022-08-31T15:59:04.437Z,2.50
2022-08-31T16:20:17.592Z,1.00
2022-08-31T16:30:32.666Z,1.60
2022-08-31T16:40:49.068Z,2.90
2022-08-31T16:51:05.885Z,3.40
2022-08-31T17:01:39.728Z,2.70
2022-08-31T17:12:26.761Z,2.90
2022-08-31T17:22:46.666Z,3.70
2022-08-31T17:33:01.565Z,2.90
2022-08-31T17:43:26.700Z,4.70
2022-08-31T17:53:44.766Z,2.30
2022-08-31T18:03:51.336Z,2.00
2022-08-31T18:13:59.098Z,4.80
2022-08-31T18:24:08.237Z,3.30
2022-08-31T18:34:23.332Z,4.60
2022-08-31T18:44:51.533Z,3.70
2022-08-31T18:54:58.967Z,5.50
2022-08-31T19:05:08.908Z,4.40
2022-08-31T19:15:18.058Z,4.20
2022-08-31T19:25:27.366Z,2.20
2022-08-31T19:35:30.908Z,4.60
2022-08-31T19:45:42.920Z,2.70
2022-08-31T19:55:54.310Z,1.90
2022-08-31T20:06:16.893Z,5.30
2022-08-31T20:16:21.157Z,4.10
2022-08-31T20:26:36.325Z,3.50
2022-08-31T20:36:48.307Z,3.20
2022-08-31T20:47:27.424Z,1.90
2022-08-31T20:58:18.302Z,2.90
2022-08-31T21:08:59.433Z,5.60
2022-08-31T21:19:03.888Z,2.60
2022-08-31T21:29:26.400Z,5.20
2022-08-31T21:39:57.111Z,3.20
2022-08-31T21:50:04.360Z,3.80
2022-08-31T22:00:14.798Z,2.30
2022-08-31T22:10:23.168Z,4.00
2022-08-31T22:20:33.048Z,3.20
2022-08-31T22:30:40.401Z,3.60
2022-08-31T22:40:50.879Z,2.90
2022-08-31T22:50:57.523Z,3.80
2022-08-31T23:01:03.500Z,1.70
2022-08-31T23:11:15.235Z,3.60
2022-08-31T23:21:21.333Z,3.20
2022-08-31T23:31:28.527Z,2.10
2022-08-31T23:41:38.965Z,3.00
2022-08-31T23:51:54.001Z,4.10
